Pagina principale
METAR-TAF:

METAR-TAF

Aeroporti :

Aeroporto di Madrid-Barajas

Madrid, Spagna

latitudine: 40-27N, longitudine: 003-33W, altezza: 609 m

Osservazione

Il bollettino è stato emesso 24 minuti fa, alle 11:30 UTC
Vento 2 kt da sud
Temperature 20°C
Umidità 56%
Pressione 1017 hPa
Visibilità 10 km o più
nessuna nube inferiore a 1500 m e nessun cumulonembo

METAR: LEMD 171130Z 17002KT CAVOK 20/11 Q1017 NOSIG

Ora: 13:54 (11:54 UTC)

Previsione

Il bollettino è stato emesso 54 minuti fa, alle 11:00 UTC
Previsione valida dal 17 alle 12 UTC al 18 alle 18 UTC
Vento 5 kt da direzioni variabili
Visibilità 10 km o più
nessuna nube inferiore a 1500 m e nessun cumulonembo
Probabilità 30% :
Temporaneamente
dal 17 alle 15 UTC al 17 alle 18 UTC
Vento 10 kt da sud-ovest
Evoluzione graduale
dal 18 alle 12 UTC al 18 alle 14 UTC
Vento 10 kt da nord-est

TAF: LEMD 171100Z 1712/1818 VRB05KT CAVOK TX23/1715Z TN12/1806Z PROB30 TEMPO 1715/1718 22010KT BECMG 1812/1814 04010KT

Osservazioni e previsioni meteorologiche di più di 4000 aeroporti (messaggi METAR e TAF).

Le stazioni disponibili sono rappresentate dai dischi gialli e rossi sulla carta.

Puntare il mouse per vedere il nome della stazione.

Clicca sopra per visualizzare le osservazioni e previsioni meteorologiche.

Per cambiare la mappa : fare clic sui pulsanti verdi con una croce nera per ingrandire, il pulsante verde con un trattino per diminuire, o sulla freccia verde per le mappe adiacenti.


METAR-TAF: